Time;durP1;ratioP1;P1;durP2;ratioP2;P2;SDS_P1;SDS_P2;PMS_P1;PMS_P2;Temp;Humidity;BMP_temperature;BMP_pressure;BME280_temperature;BME280_humidity;BME280_pressure;Samples;Min_cycle;Max_cycle;Signal;HPM_P1;HPM_P2
2022/11/03 00:01:54;;;;;;;4.35;1.23;;;;;;;;;;4992151;28;20095;-65
2022/11/03 00:04:21;;;;;;;7.63;2.25;;;;;;;;;;4992148;28;20133;-65
2022/11/03 00:06:49;;;;;;;6.38;1.40;;;;;;;;;;4991878;28;20045;-65
2022/11/03 00:09:16;;;;;;;9.85;1.38;;;;;;;;;;4992045;28;20067;-65
2022/11/03 00:11:43;;;;;;;5.45;1.48;;;;;;;;;;4991901;28;20560;-65
2022/11/03 00:14:09;;;;;;;3.40;1.13;;;;;;;;;;4975778;28;20031;-65
2022/11/03 00:16:36;;;;;;;4.88;1.42;;;;;;;;;;4991120;28;20027;-65
2022/11/03 00:19:02;;;;;;;4.40;1.35;;;;;;;;;;4990536;28;20035;-65
2022/11/03 00:21:29;;;;;;;7.03;1.15;;;;;;;;;;4991652;28;20476;-65
2022/11/03 00:23:55;;;;;;;7.10;1.30;;;;;;;;;;4991996;28;20033;-65
2022/11/03 00:26:25;;;;;;;9.27;1.65;;;;;;;;;;4981795;28;20080;-65
2022/11/03 00:28:52;;;;;;;7.32;1.70;;;;;;;;;;4972673;28;20038;-65
2022/11/03 00:31:20;;;;;;;4.97;1.27;;;;;;;;;;4988654;28;20540;-65
2022/11/03 00:33:46;;;;;;;3.60;1.02;;;;;;;;;;4991898;28;20031;-65
2022/11/03 00:36:17;;;;;;;7.30;1.20;;;;;;;;;;4991489;28;20525;-65
2022/11/03 00:38:43;;;;;;;3.83;1.13;;;;;;;;;;4988502;28;20390;-65
2022/11/03 00:41:10;;;;;;;5.78;1.23;;;;;;;;;;5011555;28;20020;-65
2022/11/03 00:43:37;;;;;;;8.20;2.00;;;;;;;;;;5094228;28;20059;-65
2022/11/03 00:46:04;;;;;;;5.75;1.30;;;;;;;;;;5093972;28;20023;-65
2022/11/03 00:48:31;;;;;;;5.15;1.10;;;;;;;;;;5093882;28;20554;-65
2022/11/03 00:51:16;;;;;;;4.60;1.00;;;;;;;;;;5093629;28;20016;-64
2022/11/03 00:53:52;;;;;;;9.60;1.67;;;;;;;;;;5092976;28;20028;-64
2022/11/03 00:56:21;;;;;;;5.82;1.05;;;;;;;;;;5093809;28;20039;-64
2022/11/03 00:58:48;;;;;;;8.25;1.50;;;;;;;;;;5093788;28;20468;-64
2022/11/03 01:01:15;;;;;;;3.03;1.05;;;;;;;;;;5093731;28;20065;-64
2022/11/03 01:06:48;;;;;;;5.43;1.00;;;;;;;;;;5093591;28;20091;-64
2022/11/03 01:09:13;;;;;;;6.53;1.30;;;;;;;;;;5027702;28;20121;-64
2022/11/03 01:11:42;;;;;;;8.57;2.22;;;;;;;;;;4991293;28;20031;-64
2022/11/03 01:14:13;;;;;;;12.02;1.63;;;;;;;;;;4991310;28;20053;-64
2022/11/03 01:16:39;;;;;;;12.23;2.45;;;;;;;;;;4991512;28;20019;-64
2022/11/03 01:19:06;;;;;;;8.27;1.45;;;;;;;;;;4990950;28;20038;-65
2022/11/03 01:21:32;;;;;;;6.80;1.63;;;;;;;;;;4991183;28;20034;-65
2022/11/03 01:24:02;;;;;;;5.78;1.27;;;;;;;;;;4991136;28;20027;-65
2022/11/03 01:26:28;;;;;;;10.40;1.48;;;;;;;;;;4990904;28;20076;-64
2022/11/03 01:28:54;;;;;;;8.73;2.65;;;;;;;;;;4991326;28;20030;-64
2022/11/03 01:31:22;;;;;;;10.90;1.70;;;;;;;;;;4990964;28;20037;-64
2022/11/03 01:33:52;;;;;;;14.50;2.70;;;;;;;;;;4990894;28;20037;-64
2022/11/03 01:36:18;;;;;;;6.30;1.67;;;;;;;;;;4991048;28;20026;-64
2022/11/03 01:38:45;;;;;;;9.38;1.90;;;;;;;;;;4982760;28;20031;-64
2022/11/03 01:41:13;;;;;;;15.85;1.92;;;;;;;;;;4975636;28;20091;-64
2022/11/03 01:43:40;;;;;;;9.20;1.58;;;;;;;;;;4991017;28;20030;-64
2022/11/03 01:46:16;;;;;;;12.15;1.98;;;;;;;;;;4991011;28;20507;-64
2022/11/03 01:48:46;;;;;;;12.30;1.77;;;;;;;;;;4990801;28;20043;-65
2022/11/03 01:51:13;;;;;;;10.73;1.90;;;;;;;;;;4990818;28;20026;-65
2022/11/03 01:53:41;;;;;;;11.13;2.20;;;;;;;;;;4990476;28;20137;-65
2022/11/03 01:56:07;;;;;;;9.60;2.10;;;;;;;;;;4990736;28;20103;-65
2022/11/03 01:58:36;;;;;;;11.65;2.03;;;;;;;;;;4990637;28;20556;-65
2022/11/03 02:01:03;;;;;;;6.72;1.88;;;;;;;;;;4990811;28;20026;-65
2022/11/03 02:03:33;;;;;;;14.20;1.95;;;;;;;;;;4990092;28;20049;-65
2022/11/03 02:05:59;;;;;;;15.52;1.90;;;;;;;;;;4990261;28;20122;-65
2022/11/03 02:08:35;;;;;;;13.45;2.10;;;;;;;;;;4989982;28;20518;-65
2022/11/03 02:12:05;;;;;;;13.25;2.28;;;;;;;;;;4990276;28;20117;-64
2022/11/03 02:13:51;;;;;;;11.27;2.00;;;;;;;;;;4989153;28;20058;-64
2022/11/03 02:16:18;;;;;;;11.40;2.30;;;;;;;;;;4990206;28;20034;-64
2022/11/03 02:18:45;;;;;;;8.00;2.35;;;;;;;;;;4990468;28;20396;-64
2022/11/03 02:21:29;;;;;;;12.95;2.28;;;;;;;;;;4990337;28;20027;-64
2022/11/03 02:24:15;;;;;;;11.20;2.35;;;;;;;;;;4990507;28;20437;-64
2022/11/03 02:26:43;;;;;;;10.88;2.63;;;;;;;;;;4990298;28;20461;-65
2022/11/03 02:29:09;;;;;;;14.38;2.65;;;;;;;;;;4990464;28;20120;-65
2022/11/03 02:31:43;;;;;;;14.70;2.72;;;;;;;;;;4972906;28;20039;-65
2022/11/03 02:34:27;;;;;;;9.63;2.25;;;;;;;;;;4970518;28;20031;-65
2022/11/03 02:36:58;;;;;;;13.00;2.78;;;;;;;;;;4970529;28;20069;-64
2022/11/03 02:39:40;;;;;;;16.15;3.08;;;;;;;;;;4970729;28;20453;-64
2022/11/03 02:42:07;;;;;;;15.48;2.67;;;;;;;;;;4981984;28;20491;-64
2022/11/03 02:44:34;;;;;;;12.85;2.45;;;;;;;;;;4989971;28;20639;-64
2022/11/03 02:47:01;;;;;;;14.20;2.67;;;;;;;;;;4989652;28;20467;-64
2022/11/03 02:49:27;;;;;;;21.02;3.65;;;;;;;;;;4989785;28;20018;-64
2022/11/03 02:52:03;;;;;;;12.70;2.35;;;;;;;;;;4989991;28;20390;-64
2022/11/03 02:54:33;;;;;;;13.95;3.45;;;;;;;;;;4989854;28;20508;-64
2022/11/03 02:57:02;;;;;;;14.32;2.47;;;;;;;;;;4989889;28;20035;-64
2022/11/03 02:59:31;;;;;;;14.00;2.25;;;;;;;;;;4989725;28;20050;-64
2022/11/03 03:02:08;;;;;;;11.93;2.83;;;;;;;;;;4972611;28;20515;-64
2022/11/03 03:04:38;;;;;;;18.95;2.70;;;;;;;;;;4989700;28;20045;-64
2022/11/03 03:07:09;;;;;;;14.38;2.60;;;;;;;;;;4989881;28;20030;-64
2022/11/03 03:09:45;;;;;;;13.40;2.92;;;;;;;;;;4989620;28;20041;-64
2022/11/03 03:12:14;;;;;;;20.88;2.97;;;;;;;;;;4989724;28;20031;-64
2022/11/03 03:14:42;;;;;;;21.23;3.47;;;;;;;;;;4989090;28;20113;-64
2022/11/03 03:17:14;;;;;;;17.83;3.20;;;;;;;;;;4989953;28;20034;-64
2022/11/03 03:19:53;;;;;;;17.73;3.08;;;;;;;;;;4992925;28;20034;-64
2022/11/03 03:22:19;;;;;;;18.17;3.10;;;;;;;;;;4992813;28;20046;-64
2022/11/03 03:24:49;;;;;;;14.77;2.83;;;;;;;;;;4992814;28;20034;-64
2022/11/03 03:27:17;;;;;;;15.40;2.80;;;;;;;;;;4993037;28;20027;-64
2022/11/03 03:29:45;;;;;;;14.15;2.63;;;;;;;;;;4988592;28;20053;-64
2022/11/03 03:32:13;;;;;;;15.15;2.60;;;;;;;;;;4973394;28;20058;-64
2022/11/03 03:34:41;;;;;;;16.88;2.35;;;;;;;;;;4972887;28;20035;-64
2022/11/03 03:37:08;;;;;;;13.90;2.65;;;;;;;;;;4973318;28;20035;-64
2022/11/03 03:39:37;;;;;;;10.63;2.60;;;;;;;;;;4973154;28;20027;-64
2022/11/03 03:42:04;;;;;;;17.90;2.85;;;;;;;;;;4984053;28;20027;-64
2022/11/03 03:44:31;;;;;;;10.93;2.05;;;;;;;;;;4991833;28;20031;-64
2022/11/03 03:47:03;;;;;;;12.90;2.20;;;;;;;;;;4992507;28;20384;-64
2022/11/03 03:49:29;;;;;;;11.55;2.20;;;;;;;;;;4992683;28;20026;-64
2022/11/03 03:51:55;;;;;;;13.10;1.92;;;;;;;;;;4992492;28;20041;-64
2022/11/03 03:54:22;;;;;;;16.33;1.98;;;;;;;;;;4992456;28;20038;-64
2022/11/03 03:56:54;;;;;;;13.30;1.92;;;;;;;;;;4992297;28;20041;-64
2022/11/03 03:59:20;;;;;;;;;;;;;;;;;;4992020;28;20061;-64
2022/11/03 04:01:46;;;;;;;8.35;1.55;;;;;;;;;;4982591;28;19906;-64
2022/11/03 04:04:13;;;;;;;9.85;1.45;;;;;;;;;;4992314;28;20045;-64
2022/11/03 04:06:39;;;;;;;13.10;1.58;;;;;;;;;;4992263;28;20034;-64
2022/11/03 04:09:05;;;;;;;15.02;1.88;;;;;;;;;;4992336;28;20055;-64
2022/11/03 04:22:32;;;;;;;7.47;1.52;;;;;;;;;;4972865;28;20034;-64
2022/11/03 04:24:59;;;;;;;6.63;1.45;;;;;;;;;;4972670;28;20060;-64
2022/11/03 04:27:29;;;;;;;9.18;1.20;;;;;;;;;;4972184;28;20046;-64
2022/11/03 04:29:57;;;;;;;15.57;1.20;;;;;;;;;;4972946;28;20722;-64
2022/11/03 04:32:23;;;;;;;1.75;0.75;;;;;;;;;;4972609;28;20058;-64
2022/11/03 04:34:49;;;;;;;3.47;1.02;;;;;;;;;;4972380;28;20031;-64
2022/11/03 04:37:15;;;;;;;4.47;0.90;;;;;;;;;;4972434;28;20035;-64
2022/11/03 04:39:41;;;;;;;6.35;0.95;;;;;;;;;;4972441;28;20027;-64
2022/11/03 04:42:18;;;;;;;9.73;1.10;;;;;;;;;;4983647;28;20030;-64
2022/11/03 04:44:46;;;;;;;2.13;0.73;;;;;;;;;;4991682;28;20426;-64
2022/11/03 04:47:12;;;;;;;5.32;1.15;;;;;;;;;;4991774;28;20030;-64
2022/11/03 04:49:38;;;;;;;4.55;0.98;;;;;;;;;;4991402;28;20038;-64
2022/11/03 04:52:16;;;;;;;4.63;0.65;;;;;;;;;;4979170;28;20433;-64
2022/11/03 04:54:42;;;;;;;3.83;0.70;;;;;;;;;;4988368;28;20496;-64
2022/11/03 04:57:11;;;;;;;4.50;0.95;;;;;;;;;;5008002;28;20029;-64
2022/11/03 04:59:37;;;;;;;6.95;0.90;;;;;;;;;;5000186;28;20030;-64
2022/11/03 05:02:03;;;;;;;6.47;0.98;;;;;;;;;;4986135;28;20069;-64
2022/11/03 05:04:29;;;;;;;4.75;1.30;;;;;;;;;;4986865;28;20039;-64
2022/11/03 05:06:55;;;;;;;4.57;0.98;;;;;;;;;;4980463;28;20050;-65
2022/11/03 05:09:29;;;;;;;3.95;0.90;;;;;;;;;;4985158;28;20035;-64
2022/11/03 05:11:56;;;;;;;5.70;0.90;;;;;;;;;;4982800;28;20023;-64
2022/11/03 05:14:30;;;;;;;9.48;0.90;;;;;;;;;;4983768;28;20034;-64
2022/11/03 05:16:57;;;;;;;8.15;0.82;;;;;;;;;;4999862;28;20015;-64
2022/11/03 05:19:33;;;;;;;5.45;0.98;;;;;;;;;;4980552;28;20059;-64
2022/11/03 05:22:00;;;;;;;6.63;1.05;;;;;;;;;;4971672;28;20049;-64
2022/11/03 05:24:26;;;;;;;2.38;0.77;;;;;;;;;;4971451;28;20092;-64
2022/11/03 05:26:54;;;;;;;8.10;2.20;;;;;;;;;;4970866;28;20038;-64
2022/11/03 05:29:22;;;;;;;6.95;1.02;;;;;;;;;;4971635;28;20115;-64
2022/11/03 05:31:48;;;;;;;4.63;1.15;;;;;;;;;;4997004;28;20092;-64
2022/11/03 05:34:26;;;;;;;3.22;0.70;;;;;;;;;;4979684;28;20509;-64
2022/11/03 05:36:52;;;;;;;4.32;0.65;;;;;;;;;;4983869;28;20029;-64
2022/11/03 05:39:21;;;;;;;2.40;0.55;;;;;;;;;;4982518;28;20018;-64
2022/11/03 05:41:47;;;;;;;3.15;0.57;;;;;;;;;;4969401;28;20450;-64
2022/11/03 05:44:20;;;;;;;4.82;0.77;;;;;;;;;;4982155;28;20026;-64
2022/11/03 05:46:46;;;;;;;3.95;0.70;;;;;;;;;;4983114;28;20031;-64
2022/11/03 05:49:12;;;;;;;5.95;0.70;;;;;;;;;;4985130;28;20508;-64
2022/11/03 05:51:39;;;;;;;4.85;0.68;;;;;;;;;;4985088;28;20042;-64
2022/11/03 05:54:07;;;;;;;3.88;0.70;;;;;;;;;;4981794;28;20617;-64
2022/11/03 05:56:34;;;;;;;4.28;1.38;;;;;;;;;;4980162;28;20540;-64
2022/11/03 05:59:01;;;;;;;2.28;1.27;;;;;;;;;;4971975;28;20110;-64
2022/11/03 06:01:32;;;;;;;6.30;1.38;;;;;;;;;;4979648;28;20030;-64
2022/11/03 06:04:03;;;;;;;1.27;0.73;;;;;;;;;;4981111;28;20042;-64
2022/11/03 06:06:33;;;;;;;3.03;0.60;;;;;;;;;;4984064;28;20110;-64
2022/11/03 06:09:01;;;;;;;1.95;0.80;;;;;;;;;;5023711;28;20041;-64
2022/11/03 06:11:36;;;;;;;3.38;0.70;;;;;;;;;;5043444;28;20028;-64
2022/11/03 06:14:13;;;;;;;1.05;0.68;;;;;;;;;;4994321;28;20121;-64
2022/11/03 06:16:43;;;;;;;5.38;0.77;;;;;;;;;;4991048;28;20432;-64
2022/11/03 06:19:17;;;;;;;7.05;0.60;;;;;;;;;;4986767;28;20486;-64
2022/11/03 06:21:43;;;;;;;3.20;0.75;;;;;;;;;;4990576;28;20035;-64
2022/11/03 06:24:11;;;;;;;2.10;0.60;;;;;;;;;;4988295;28;20031;-64
2022/11/03 06:26:37;;;;;;;1.65;0.50;;;;;;;;;;4985491;28;20113;-64
2022/11/03 06:29:03;;;;;;;3.38;0.90;;;;;;;;;;4984590;28;20406;-64
2022/11/03 06:31:32;;;;;;;2.53;0.50;;;;;;;;;;5000091;28;20083;-63
2022/11/03 06:33:58;;;;;;;4.05;0.60;;;;;;;;;;4989253;28;20047;-64
2022/11/03 06:36:26;;;;;;;0.60;0.40;;;;;;;;;;4983080;28;20026;-64
2022/11/03 06:38:56;;;;;;;5.45;2.92;;;;;;;;;;4969945;28;20027;-64
2022/11/03 06:41:24;;;;;;;2.28;0.50;;;;;;;;;;4973982;28;20034;-64
2022/11/03 06:43:50;;;;;;;3.33;0.70;;;;;;;;;;4984763;28;20396;-64
2022/11/03 06:46:24;;;;;;;0.70;0.50;;;;;;;;;;5018975;28;20169;-64
2022/11/03 06:49:00;;;;;;;2.25;0.65;;;;;;;;;;4993921;28;20114;-64
2022/11/03 06:51:27;;;;;;;2.50;0.60;;;;;;;;;;4979142;28;20506;-64
2022/11/03 06:53:54;;;;;;;6.43;1.95;;;;;;;;;;4984310;28;20026;-64
2022/11/03 06:56:25;;;;;;;1.27;0.90;;;;;;;;;;4985206;28;20015;-64
2022/11/03 06:58:52;;;;;;;2.90;0.60;;;;;;;;;;4979146;28;20113;-64
2022/11/03 07:01:21;;;;;;;1.90;0.77;;;;;;;;;;4982472;28;20505;-64
2022/11/03 07:03:48;;;;;;;3.92;1.20;;;;;;;;;;4982153;28;20046;-64
2022/11/03 07:06:23;;;;;;;2.78;1.30;;;;;;;;;;4984374;28;20038;-64
2022/11/03 07:08:51;;;;;;;2.58;1.00;;;;;;;;;;4980629;28;20042;-64
2022/11/03 07:11:21;;;;;;;2.05;0.98;;;;;;;;;;4982959;28;20046;-64
2022/11/03 07:13:49;;;;;;;2.33;0.95;;;;;;;;;;4982443;28;20448;-64
2022/11/03 07:16:38;;;;;;;1.15;0.60;;;;;;;;;;4989881;28;20680;-64
2022/11/03 07:19:06;;;;;;;1.80;0.88;;;;;;;;;;4988081;28;20034;-64
2022/11/03 07:21:47;;;;;;;2.70;1.15;;;;;;;;;;4982293;28;20098;-64
2022/11/03 07:24:26;;;;;;;3.22;1.13;;;;;;;;;;4981349;28;20408;-64
2022/11/03 07:26:56;;;;;;;1.85;1.17;;;;;;;;;;4988389;28;20019;-64
2022/11/03 07:29:26;;;;;;;4.65;1.58;;;;;;;;;;4984537;28;20137;-64
2022/11/03 07:31:53;;;;;;;3.33;1.35;;;;;;;;;;4983018;28;20539;-64
2022/11/03 07:34:21;;;;;;;2.38;1.30;;;;;;;;;;4985744;28;20638;-64
2022/11/03 07:36:48;;;;;;;3.53;1.23;;;;;;;;;;4986273;28;20106;-64
2022/11/03 07:39:16;;;;;;;3.28;1.20;;;;;;;;;;4983720;28;20065;-64
2022/11/03 07:41:42;;;;;;;1.25;0.93;;;;;;;;;;4981925;28;20041;-64
2022/11/03 07:44:10;;;;;;;3.70;1.27;;;;;;;;;;4993543;28;20031;-64
2022/11/03 07:46:36;;;;;;;7.90;1.23;;;;;;;;;;4982169;28;20019;-64
2022/11/03 07:49:03;;;;;;;6.38;1.08;;;;;;;;;;4981773;28;20042;-64
2022/11/03 07:51:33;;;;;;;3.20;1.30;;;;;;;;;;4984424;28;20041;-64
2022/11/03 07:54:02;;;;;;;2.60;1.05;;;;;;;;;;4987968;28;20031;-64
2022/11/03 07:56:31;;;;;;;4.57;1.48;;;;;;;;;;4985308;28;20082;-64
2022/11/03 07:58:58;;;;;;;2.42;1.40;;;;;;;;;;4985244;28;20054;-61
2022/11/03 08:01:32;;;;;;;2.85;0.80;;;;;;;;;;4987876;28;20026;-61
2022/11/03 08:04:01;;;;;;;1.85;0.80;;;;;;;;;;4949879;29;20039;-61
2022/11/03 08:06:27;;;;;;;3.97;1.00;;;;;;;;;;4950857;28;20039;-61
2022/11/03 08:08:53;;;;;;;1.75;0.88;;;;;;;;;;4950073;28;20027;-61
2022/11/03 08:11:21;;;;;;;1.48;0.88;;;;;;;;;;4953396;28;20114;-61
2022/11/03 08:13:48;;;;;;;8.57;1.35;;;;;;;;;;4943326;28;20074;-61
2022/11/03 08:16:14;;;;;;;2.75;1.00;;;;;;;;;;4941742;28;20032;-67
2022/11/03 08:18:40;;;;;;;4.68;0.90;;;;;;;;;;4944453;28;20054;-61
2022/11/03 08:21:06;;;;;;;5.95;1.10;;;;;;;;;;4953121;28;20036;-61
2022/11/03 08:23:32;;;;;;;4.75;1.30;;;;;;;;;;4942999;28;20512;-61
2022/11/03 08:25:58;;;;;;;5.82;1.45;;;;;;;;;;4944579;28;20520;-61
2022/11/03 08:28:24;;;;;;;8.13;1.40;;;;;;;;;;4942945;28;20607;-61
2022/11/03 08:30:50;;;;;;;3.58;1.30;;;;;;;;;;4948978;28;20030;-63
2022/11/03 08:33:17;;;;;;;5.20;1.83;;;;;;;;;;4949268;28;20114;-61
2022/11/03 08:35:43;;;;;;;11.32;1.83;;;;;;;;;;4951149;28;20450;-61
2022/11/03 08:38:09;;;;;;;7.03;2.00;;;;;;;;;;4942364;28;20024;-61
2022/11/03 08:40:35;;;;;;;8.18;2.70;;;;;;;;;;4944027;28;20052;-61
2022/11/03 08:43:05;;;;;;;9.00;1.80;;;;;;;;;;4942837;28;20032;-61
2022/11/03 08:45:31;;;;;;;6.93;2.15;;;;;;;;;;4940529;29;20036;-61
2022/11/03 08:47:57;;;;;;;6.53;1.52;;;;;;;;;;4942481;28;20496;-61
2022/11/03 08:50:23;;;;;;;8.70;1.52;;;;;;;;;;4943832;28;20031;-61
2022/11/03 08:52:50;;;;;;;4.07;1.20;;;;;;;;;;4943451;29;20042;-61
2022/11/03 08:55:16;;;;;;;2.70;1.00;;;;;;;;;;4946137;28;20035;-61
2022/11/03 08:57:42;;;;;;;5.80;0.88;;;;;;;;;;4942767;28;20038;-61
2022/11/03 09:00:08;;;;;;;3.92;1.50;;;;;;;;;;4948111;28;20078;-61
2022/11/03 09:02:34;;;;;;;3.42;1.20;;;;;;;;;;4964168;28;20062;-61
2022/11/03 09:05:01;;;;;;;5.10;1.65;;;;;;;;;;4987452;28;20022;-61
2022/11/03 09:07:27;;;;;;;1.73;1.10;;;;;;;;;;4986634;28;20386;-61
2022/11/03 09:09:53;;;;;;;4.53;1.17;;;;;;;;;;4989296;28;20031;-61
2022/11/03 09:12:19;;;;;;;8.27;1.20;;;;;;;;;;4987575;28;20472;-60
2022/11/03 09:14:45;;;;;;;5.78;1.15;;;;;;;;;;4986491;28;20121;-61
2022/11/03 09:17:11;;;;;;;5.93;1.10;;;;;;;;;;4979615;28;20037;-61
2022/11/03 09:19:37;;;;;;;6.35;1.13;;;;;;;;;;4974261;28;20031;-61
2022/11/03 09:22:04;;;;;;;8.20;1.65;;;;;;;;;;4983062;28;20030;-61
2022/11/03 09:24:30;;;;;;;7.60;1.25;;;;;;;;;;4984800;28;20459;-61
2022/11/03 09:26:56;;;;;;;9.23;1.27;;;;;;;;;;4982621;28;20110;-61
2022/11/03 09:29:22;;;;;;;12.85;1.63;;;;;;;;;;4973519;28;20078;-61
2022/11/03 09:31:48;;;;;;;11.07;2.88;;;;;;;;;;4984728;28;20034;-61
2022/11/03 09:34:14;;;;;;;9.88;1.90;;;;;;;;;;4986201;28;20030;-61
2022/11/03 09:36:40;;;;;;;7.22;1.50;;;;;;;;;;4987475;28;20019;-61
2022/11/03 09:39:07;;;;;;;16.08;2.15;;;;;;;;;;4986752;28;20026;-61
2022/11/03 09:41:33;;;;;;;6.93;1.83;;;;;;;;;;4983229;28;20026;-61
2022/11/03 09:44:00;;;;;;;11.32;2.20;;;;;;;;;;4981691;28;20031;-61
2022/11/03 09:46:27;;;;;;;11.55;1.60;;;;;;;;;;4977606;28;20480;-61
2022/11/03 09:48:54;;;;;;;10.00;1.00;;;;;;;;;;4985219;28;20023;-61
2022/11/03 09:51:20;;;;;;;11.32;1.85;;;;;;;;;;4986135;28;20043;-61
2022/11/03 09:53:47;;;;;;;7.80;1.27;;;;;;;;;;4981915;28;20075;-61
2022/11/03 09:56:13;;;;;;;10.98;1.63;;;;;;;;;;4983520;28;20023;-61
2022/11/03 09:58:40;;;;;;;11.88;1.52;;;;;;;;;;4982275;28;20517;-61
2022/11/03 10:01:09;;;;;;;9.68;1.88;;;;;;;;;;4987330;28;20050;-61
2022/11/03 10:03:35;;;;;;;13.20;2.35;;;;;;;;;;4989638;28;20057;-61
2022/11/03 10:06:01;;;;;;;15.40;2.95;;;;;;;;;;4987323;28;20034;-61
2022/11/03 10:08:32;;;;;;;11.18;2.42;;;;;;;;;;4987671;28;20038;-61
2022/11/03 10:10:58;;;;;;;13.75;3.15;;;;;;;;;;4991464;28;20038;-61
2022/11/03 10:13:27;;;;;;;15.45;2.28;;;;;;;;;;4987405;28;21748;-61
2022/11/03 10:15:53;;;;;;;15.15;2.38;;;;;;;;;;4984507;28;20092;-61
2022/11/03 10:18:20;;;;;;;13.40;3.80;;;;;;;;;;4981868;28;20031;-61
2022/11/03 10:20:46;;;;;;;17.85;2.67;;;;;;;;;;5002948;28;20041;-61
2022/11/03 10:23:12;;;;;;;10.60;1.77;;;;;;;;;;4979509;28;20041;-62
2022/11/03 10:25:42;;;;;;;14.40;2.20;;;;;;;;;;4974599;28;20034;-61
2022/11/03 10:28:11;;;;;;;12.88;2.35;;;;;;;;;;4982769;28;20026;-61
2022/11/03 10:30:47;;;;;;;17.50;2.95;;;;;;;;;;4983775;28;20442;-61
2022/11/03 10:33:24;;;;;;;21.90;2.53;;;;;;;;;;4982035;28;20396;-61
2022/11/03 10:35:50;;;;;;;13.15;2.38;;;;;;;;;;4978102;28;20054;-61
2022/11/03 10:38:26;;;;;;;18.05;2.80;;;;;;;;;;4984916;28;20042;-61
2022/11/03 10:40:52;;;;;;;19.02;4.43;;;;;;;;;;4985163;28;20023;-61
2022/11/03 10:43:18;;;;;;;11.27;2.28;;;;;;;;;;4982859;28;20088;-61
2022/11/03 10:45:44;;;;;;;15.65;2.40;;;;;;;;;;4977923;28;20027;-61
2022/11/03 10:48:10;;;;;;;10.60;2.65;;;;;;;;;;4981908;28;20096;-61
2022/11/03 10:50:39;;;;;;;16.70;2.85;;;;;;;;;;4978734;28;20030;-61
2022/11/03 10:53:06;;;;;;;12.18;2.55;;;;;;;;;;4977856;28;20027;-61
2022/11/03 10:55:32;;;;;;;16.63;2.40;;;;;;;;;;4976978;28;20037;-62
2022/11/03 10:57:58;;;;;;;15.13;1.90;;;;;;;;;;4984532;28;20038;-61
2022/11/03 11:00:24;;;;;;;17.25;3.38;;;;;;;;;;4999193;28;20066;-61
2022/11/03 11:02:55;;;;;;;13.80;2.25;;;;;;;;;;4983789;28;20068;-61
2022/11/03 11:05:22;;;;;;;13.88;2.33;;;;;;;;;;4982923;28;20438;-61
2022/11/03 11:07:50;;;;;;;21.27;3.40;;;;;;;;;;4979428;28;20124;-61
2022/11/03 11:10:19;;;;;;;12.55;2.40;;;;;;;;;;4975696;28;20019;-61
2022/11/03 11:13:03;;;;;;;19.50;2.40;;;;;;;;;;4994359;28;20057;-61
2022/11/03 11:15:41;;;;;;;11.80;2.35;;;;;;;;;;4997705;28;20034;-61
2022/11/03 11:18:08;;;;;;;17.20;3.72;;;;;;;;;;4996127;28;20027;-61
2022/11/03 11:20:36;;;;;;;16.77;3.42;;;;;;;;;;5015454;28;20033;-61
2022/11/03 11:23:21;;;;;;;14.43;3.00;;;;;;;;;;5007086;28;20036;-61
2022/11/03 11:26:06;;;;;;;16.95;3.20;;;;;;;;;;4997710;28;20243;-61
2022/11/03 11:28:32;;;;;;;19.05;2.65;;;;;;;;;;4984286;28;20073;-61
2022/11/03 11:30:58;;;;;;;22.20;2.75;;;;;;;;;;4989049;28;20042;-61
2022/11/03 11:33:26;;;;;;;24.55;3.28;;;;;;;;;;4988441;28;20035;-61
2022/11/03 11:35:52;;;;;;;15.07;3.00;;;;;;;;;;4989780;28;20019;-61
2022/11/03 11:38:37;;;;;;;18.30;2.83;;;;;;;;;;4987272;28;20026;-61
2022/11/03 11:41:03;;;;;;;14.95;2.75;;;;;;;;;;4984767;28;20022;-61
2022/11/03 11:43:29;;;;;;;16.08;2.92;;;;;;;;;;4997064;28;20053;-61
2022/11/03 11:46:14;;;;;;;23.60;3.65;;;;;;;;;;4996330;28;20151;-61
2022/11/03 11:48:40;;;;;;;21.90;3.20;;;;;;;;;;4975915;28;20027;-60
2022/11/03 11:51:08;;;;;;;16.40;2.85;;;;;;;;;;4976269;28;20035;-61
2022/11/03 11:53:39;;;;;;;17.65;3.00;;;;;;;;;;4976513;28;20042;-60
2022/11/03 11:56:08;;;;;;;11.60;2.35;;;;;;;;;;5008605;28;20471;-61
2022/11/03 11:58:46;;;;;;;16.52;3.55;;;;;;;;;;5004535;28;20028;-61
2022/11/03 12:01:32;;;;;;;14.75;2.60;;;;;;;;;;4993315;28;20019;-61
2022/11/03 12:04:00;;;;;;;13.18;2.60;;;;;;;;;;4996627;28;20046;-61
2022/11/03 12:06:52;;;;;;;12.25;2.20;;;;;;;;;;4992997;28;20045;-61
2022/11/03 12:09:19;;;;;;;20.10;2.50;;;;;;;;;;4983115;28;20577;-61
2022/11/03 12:11:47;;;;;;;11.05;2.47;;;;;;;;;;4984154;28;20031;-61
2022/11/03 12:14:28;;;;;;;13.45;2.05;;;;;;;;;;4994328;28;21444;-61
2022/11/03 12:16:55;;;;;;;16.95;2.47;;;;;;;;;;4983143;28;20027;-61
2022/11/03 12:19:41;;;;;;;12.65;2.78;;;;;;;;;;4983175;28;20057;-61
2022/11/03 12:22:07;;;;;;;20.48;3.20;;;;;;;;;;4981906;28;20034;-61
2022/11/03 12:24:38;;;;;;;14.68;2.60;;;;;;;;;;4979410;28;20034;-61
2022/11/03 12:27:17;;;;;;;20.80;3.25;;;;;;;;;;4989201;28;20020;-61
2022/11/03 12:29:43;;;;;;;12.07;2.50;;;;;;;;;;4984504;28;20077;-61
2022/11/03 12:32:09;;;;;;;14.10;2.53;;;;;;;;;;4976017;28;20038;-61
2022/11/03 12:34:35;;;;;;;16.38;2.58;;;;;;;;;;4976691;28;20125;-61
2022/11/03 12:37:01;;;;;;;17.05;2.83;;;;;;;;;;4972969;28;20488;-62
2022/11/03 12:39:27;;;;;;;23.85;3.38;;;;;;;;;;4973335;28;20144;-62
2022/11/03 12:41:53;;;;;;;15.93;2.92;;;;;;;;;;4976616;28;20033;-61
2022/11/03 12:44:19;;;;;;;16.42;3.20;;;;;;;;;;4974602;28;20038;-61
2022/11/03 12:46:45;;;;;;;14.20;2.40;;;;;;;;;;4974369;28;20057;-61
2022/11/03 12:49:12;;;;;;;15.88;2.47;;;;;;;;;;4974050;28;20084;-61
2022/11/03 12:51:38;;;;;;;12.32;2.50;;;;;;;;;;4974010;28;20037;-61
2022/11/03 12:54:04;;;;;;;16.02;2.60;;;;;;;;;;4973351;28;20031;-61
2022/11/03 12:56:30;;;;;;;14.48;2.83;;;;;;;;;;4973356;28;20033;-61
2022/11/03 12:58:56;;;;;;;17.15;2.25;;;;;;;;;;4973552;28;20037;-61
2022/11/03 13:01:22;;;;;;;14.73;3.35;;;;;;;;;;4975777;28;20039;-61
2022/11/03 13:03:48;;;;;;;10.65;2.42;;;;;;;;;;4976655;28;20047;-61
2022/11/03 13:06:14;;;;;;;14.65;3.10;;;;;;;;;;4974783;28;20049;-61
2022/11/03 13:08:40;;;;;;;18.92;3.00;;;;;;;;;;4973250;28;20035;-61
2022/11/03 13:12:29;;;;;;;17.95;3.30;;;;;;;;;;4973800;28;20039;-61
2022/11/03 13:13:53;;;;;;;19.63;3.38;;;;;;;;;;4978230;28;20061;-61
2022/11/03 13:16:19;;;;;;;18.33;3.08;;;;;;;;;;4976957;28;20030;-61
2022/11/03 13:18:46;;;;;;;19.77;2.80;;;;;;;;;;4974750;28;20058;-61
2022/11/03 13:21:12;;;;;;;19.05;2.65;;;;;;;;;;4972469;28;20033;-61
2022/11/03 13:23:38;;;;;;;10.27;2.38;;;;;;;;;;4974211;28;20030;-61
2022/11/03 13:26:04;;;;;;;12.95;2.25;;;;;;;;;;4975550;28;20093;-61
2022/11/03 13:28:31;;;;;;;17.40;2.53;;;;;;;;;;4972284;28;20055;-61
2022/11/03 13:30:57;;;;;;;55.42;12.27;;;;;;;;;;4970827;28;20030;-61
2022/11/03 13:33:23;;;;;;;15.15;2.38;;;;;;;;;;4972167;28;20121;-61
2022/11/03 13:35:49;;;;;;;10.35;1.88;;;;;;;;;;4973290;28;20019;-61
2022/11/03 13:38:15;;;;;;;14.85;3.30;;;;;;;;;;4973846;28;20029;-61
2022/11/03 13:40:41;;;;;;;13.43;3.03;;;;;;;;;;4974470;28;20038;-60
2022/11/03 13:43:07;;;;;;;12.65;2.55;;;;;;;;;;4973641;28;20034;-61
2022/11/03 13:45:33;;;;;;;56.45;12.75;;;;;;;;;;4972469;28;20461;-61
2022/11/03 13:47:59;;;;;;;27.25;5.95;;;;;;;;;;4975198;28;20109;-61
2022/11/03 13:50:25;;;;;;;12.40;2.10;;;;;;;;;;4971163;28;20035;-61
2022/11/03 13:52:52;;;;;;;15.00;2.17;;;;;;;;;;4975779;28;20034;-61
2022/11/03 13:55:18;;;;;;;7.90;2.17;;;;;;;;;;4972469;28;20027;-61
2022/11/03 13:57:44;;;;;;;14.20;2.35;;;;;;;;;;4981531;28;20505;-61
2022/11/03 14:00:15;;;;;;;9.07;1.75;;;;;;;;;;4978519;28;20019;-61
2022/11/03 14:02:42;;;;;;;11.48;2.35;;;;;;;;;;4976133;28;20067;-61
2022/11/03 14:05:08;;;;;;;10.35;2.25;;;;;;;;;;4971415;28;21557;-61
2022/11/03 14:07:35;;;;;;;7.13;2.47;;;;;;;;;;4974597;28;20527;-61
2022/11/03 14:10:01;;;;;;;6.80;1.85;;;;;;;;;;4974556;28;20027;-61
2022/11/03 14:12:30;;;;;;;12.60;1.98;;;;;;;;;;4974266;28;20038;-61
2022/11/03 14:15:16;;;;;;;9.73;2.00;;;;;;;;;;4969364;28;20039;-61
2022/11/03 14:17:43;;;;;;;13.60;2.08;;;;;;;;;;4973526;28;20116;-61
2022/11/03 14:20:11;;;;;;;14.85;2.45;;;;;;;;;;4975418;28;20023;-61
2022/11/03 14:22:37;;;;;;;15.27;2.65;;;;;;;;;;4975348;28;20030;-61
2022/11/03 14:25:04;;;;;;;12.35;2.72;;;;;;;;;;4978126;28;21058;-60
2022/11/03 14:27:30;;;;;;;18.40;2.38;;;;;;;;;;4973231;28;20073;-61
2022/11/03 14:29:56;;;;;;;17.30;2.58;;;;;;;;;;4974591;28;20033;-61
2022/11/03 14:32:22;;;;;;;16.55;3.17;;;;;;;;;;4972669;28;20027;-61
2022/11/03 14:34:48;;;;;;;12.02;2.38;;;;;;;;;;4979631;28;20460;-61
2022/11/03 14:37:15;;;;;;;16.00;3.08;;;;;;;;;;4972591;28;20043;-61
2022/11/03 14:39:41;;;;;;;17.98;2.80;;;;;;;;;;4972562;28;20014;-60
2022/11/03 14:42:14;;;;;;;14.38;2.75;;;;;;;;;;4970241;28;20034;-61
2022/11/03 14:44:41;;;;;;;17.10;3.78;;;;;;;;;;4973151;28;20038;-61
2022/11/03 14:47:08;;;;;;;19.83;3.22;;;;;;;;;;4974771;28;20038;-60
2022/11/03 14:49:34;;;;;;;18.30;3.10;;;;;;;;;;4971316;28;20031;-61
2022/11/03 14:52:01;;;;;;;14.73;2.67;;;;;;;;;;4972033;28;20034;-61
2022/11/03 14:54:27;;;;;;;6.43;2.33;;;;;;;;;;4975195;28;20019;-61
2022/11/03 14:56:54;;;;;;;12.25;3.30;;;;;;;;;;4972746;28;20511;-61
2022/11/03 14:59:20;;;;;;;12.13;2.78;;;;;;;;;;4973921;28;20099;-61